sensor_id;sensor_type;location;lat;lon;timestamp;P1;durP1;ratioP1;P2;durP2;ratioP2
18738;SDS011;9498;51.862;19.460;2022-08-04T00:02:16;25.43;;;16.80;;
18738;SDS011;9498;51.862;19.460;2022-08-04T00:04:47;24.03;;;17.17;;
18738;SDS011;9498;51.862;19.460;2022-08-04T00:07:15;25.63;;;18.00;;
18738;SDS011;9498;51.862;19.460;2022-08-04T00:09:48;22.67;;;16.53;;
18738;SDS011;9498;51.862;19.460;2022-08-04T00:12:16;23.67;;;16.90;;
18738;SDS011;9498;51.862;19.460;2022-08-04T00:14:46;26.03;;;17.20;;
18738;SDS011;9498;51.862;19.460;2022-08-04T00:17:13;25.17;;;17.07;;
18738;SDS011;9498;51.862;19.460;2022-08-04T00:19:44;23.00;;;16.53;;
18738;SDS011;9498;51.862;19.460;2022-08-04T00:22:13;29.33;;;17.23;;
18738;SDS011;9498;51.862;19.460;2022-08-04T00:24:42;23.77;;;17.10;;
18738;SDS011;9498;51.862;19.460;2022-08-04T00:27:12;24.87;;;17.63;;
18738;SDS011;9498;51.862;19.460;2022-08-04T00:29:39;22.23;;;16.67;;
18738;SDS011;9498;51.862;19.460;2022-08-04T00:32:07;25.40;;;17.63;;
18738;SDS011;9498;51.862;19.460;2022-08-04T00:34:34;28.70;;;17.77;;
18738;SDS011;9498;51.862;19.460;2022-08-04T00:37:02;28.80;;;17.30;;
18738;SDS011;9498;51.862;19.460;2022-08-04T00:39:30;25.60;;;16.43;;
18738;SDS011;9498;51.862;19.460;2022-08-04T00:42:12;26.13;;;16.63;;
18738;SDS011;9498;51.862;19.460;2022-08-04T00:44:47;24.23;;;16.27;;
18738;SDS011;9498;51.862;19.460;2022-08-04T00:47:21;24.80;;;16.70;;
18738;SDS011;9498;51.862;19.460;2022-08-04T00:49:58;27.13;;;17.30;;
18738;SDS011;9498;51.862;19.460;2022-08-04T00:52:32;28.43;;;16.50;;
18738;SDS011;9498;51.862;19.460;2022-08-04T00:55:12;24.27;;;16.67;;
18738;SDS011;9498;51.862;19.460;2022-08-04T00:57:49;27.33;;;17.33;;
18738;SDS011;9498;51.862;19.460;2022-08-04T01:00:19;26.43;;;16.87;;
18738;SDS011;9498;51.862;19.460;2022-08-04T01:02:55;26.13;;;16.87;;
18738;SDS011;9498;51.862;19.460;2022-08-04T01:05:27;28.77;;;16.90;;
18738;SDS011;9498;51.862;19.460;2022-08-04T01:08:00;24.33;;;16.27;;
18738;SDS011;9498;51.862;19.460;2022-08-04T01:10:39;22.80;;;16.63;;
18738;SDS011;9498;51.862;19.460;2022-08-04T01:13:22;26.23;;;16.53;;
18738;SDS011;9498;51.862;19.460;2022-08-04T01:15:53;27.33;;;16.00;;
18738;SDS011;9498;51.862;19.460;2022-08-04T01:18:26;26.73;;;17.10;;
18738;SDS011;9498;51.862;19.460;2022-08-04T01:21:01;28.53;;;17.03;;
18738;SDS011;9498;51.862;19.460;2022-08-04T01:23:36;24.23;;;16.30;;
18738;SDS011;9498;51.862;19.460;2022-08-04T01:26:30;24.13;;;16.33;;
18738;SDS011;9498;51.862;19.460;2022-08-04T01:29:07;31.50;;;18.80;;
18738;SDS011;9498;51.862;19.460;2022-08-04T01:31:44;25.80;;;17.83;;
18738;SDS011;9498;51.862;19.460;2022-08-04T01:34:15;25.60;;;18.33;;
18738;SDS011;9498;51.862;19.460;2022-08-04T01:36:45;29.00;;;18.07;;
18738;SDS011;9498;51.862;19.460;2022-08-04T01:39:13;27.70;;;16.93;;
18738;SDS011;9498;51.862;19.460;2022-08-04T01:41:58;27.50;;;17.67;;
18738;SDS011;9498;51.862;19.460;2022-08-04T01:44:27;30.93;;;18.83;;
18738;SDS011;9498;51.862;19.460;2022-08-04T01:46:55;24.40;;;17.23;;
18738;SDS011;9498;51.862;19.460;2022-08-04T01:49:22;28.10;;;18.73;;
18738;SDS011;9498;51.862;19.460;2022-08-04T01:51:54;31.13;;;20.00;;
18738;SDS011;9498;51.862;19.460;2022-08-04T01:54:22;28.30;;;19.93;;
18738;SDS011;9498;51.862;19.460;2022-08-04T01:56:49;27.40;;;17.90;;
18738;SDS011;9498;51.862;19.460;2022-08-04T01:59:17;26.80;;;19.10;;
18738;SDS011;9498;51.862;19.460;2022-08-04T02:01:46;28.20;;;19.10;;
18738;SDS011;9498;51.862;19.460;2022-08-04T02:04:14;34.43;;;19.73;;
18738;SDS011;9498;51.862;19.460;2022-08-04T02:06:45;31.07;;;19.63;;
18738;SDS011;9498;51.862;19.460;2022-08-04T02:09:15;32.07;;;20.23;;
18738;SDS011;9498;51.862;19.460;2022-08-04T02:11:47;32.80;;;20.13;;
18738;SDS011;9498;51.862;19.460;2022-08-04T02:14:17;35.20;;;20.73;;
18738;SDS011;9498;51.862;19.460;2022-08-04T02:17:03;34.17;;;22.40;;
18738;SDS011;9498;51.862;19.460;2022-08-04T02:19:37;33.63;;;22.13;;
18738;SDS011;9498;51.862;19.460;2022-08-04T02:22:08;32.27;;;21.03;;
18738;SDS011;9498;51.862;19.460;2022-08-04T02:24:41;34.27;;;20.97;;
18738;SDS011;9498;51.862;19.460;2022-08-04T02:27:09;41.83;;;22.03;;
18738;SDS011;9498;51.862;19.460;2022-08-04T02:29:38;38.50;;;22.60;;
18738;SDS011;9498;51.862;19.460;2022-08-04T02:32:09;34.93;;;22.60;;
18738;SDS011;9498;51.862;19.460;2022-08-04T02:34:39;33.73;;;22.93;;
18738;SDS011;9498;51.862;19.460;2022-08-04T02:37:09;35.70;;;22.43;;
18738;SDS011;9498;51.862;19.460;2022-08-04T02:39:37;39.47;;;23.27;;
18738;SDS011;9498;51.862;19.460;2022-08-04T02:42:08;41.70;;;23.27;;
18738;SDS011;9498;51.862;19.460;2022-08-04T02:44:37;38.93;;;22.77;;
18738;SDS011;9498;51.862;19.460;2022-08-04T02:47:05;40.60;;;24.30;;
18738;SDS011;9498;51.862;19.460;2022-08-04T02:49:35;38.73;;;23.83;;
18738;SDS011;9498;51.862;19.460;2022-08-04T02:52:03;45.67;;;23.50;;
18738;SDS011;9498;51.862;19.460;2022-08-04T02:54:34;38.93;;;24.37;;
18738;SDS011;9498;51.862;19.460;2022-08-04T02:57:06;38.73;;;24.33;;
18738;SDS011;9498;51.862;19.460;2022-08-04T02:59:37;40.67;;;24.30;;
18738;SDS011;9498;51.862;19.460;2022-08-04T03:02:08;37.70;;;22.80;;
18738;SDS011;9498;51.862;19.460;2022-08-04T03:04:42;39.57;;;24.23;;
18738;SDS011;9498;51.862;19.460;2022-08-04T03:10:11;42.80;;;24.97;;
18738;SDS011;9498;51.862;19.460;2022-08-04T03:13:04;39.27;;;24.17;;
18738;SDS011;9498;51.862;19.460;2022-08-04T03:22:10;42.63;;;24.50;;
18738;SDS011;9498;51.862;19.460;2022-08-04T03:27:51;44.33;;;24.33;;
18738;SDS011;9498;51.862;19.460;2022-08-04T03:30:23;43.57;;;24.13;;
18738;SDS011;9498;51.862;19.460;2022-08-04T03:33:13;37.43;;;23.57;;
18738;SDS011;9498;51.862;19.460;2022-08-04T03:39:02;37.07;;;22.60;;
18738;SDS011;9498;51.862;19.460;2022-08-04T03:41:36;37.10;;;24.27;;
18738;SDS011;9498;51.862;19.460;2022-08-04T03:47:05;37.90;;;22.97;;
18738;SDS011;9498;51.862;19.460;2022-08-04T03:49:40;36.83;;;23.37;;
18738;SDS011;9498;51.862;19.460;2022-08-04T03:52:14;39.90;;;23.63;;
18738;SDS011;9498;51.862;19.460;2022-08-04T03:55:13;38.73;;;24.53;;
18738;SDS011;9498;51.862;19.460;2022-08-04T03:57:50;35.97;;;23.27;;
18738;SDS011;9498;51.862;19.460;2022-08-04T04:00:19;39.03;;;25.43;;
18738;SDS011;9498;51.862;19.460;2022-08-04T04:08:23;41.17;;;24.90;;
18738;SDS011;9498;51.862;19.460;2022-08-04T04:11:03;39.93;;;25.47;;
18738;SDS011;9498;51.862;19.460;2022-08-04T04:13:35;39.40;;;26.23;;
18738;SDS011;9498;51.862;19.460;2022-08-04T04:16:15;41.67;;;26.70;;
18738;SDS011;9498;51.862;19.460;2022-08-04T04:18:51;47.10;;;28.10;;
18738;SDS011;9498;51.862;19.460;2022-08-04T04:21:28;48.50;;;30.57;;
18738;SDS011;9498;51.862;19.460;2022-08-04T04:24:02;45.93;;;30.00;;
18738;SDS011;9498;51.862;19.460;2022-08-04T04:26:48;47.03;;;30.80;;
18738;SDS011;9498;51.862;19.460;2022-08-04T04:29:28;49.97;;;32.20;;
18738;SDS011;9498;51.862;19.460;2022-08-04T04:31:58;55.27;;;35.37;;
18738;SDS011;9498;51.862;19.460;2022-08-04T04:34:32;61.67;;;36.57;;
18738;SDS011;9498;51.862;19.460;2022-08-04T04:37:08;58.07;;;36.87;;
18738;SDS011;9498;51.862;19.460;2022-08-04T04:39:42;67.50;;;40.07;;
18738;SDS011;9498;51.862;19.460;2022-08-04T04:42:23;62.23;;;39.03;;
18738;SDS011;9498;51.862;19.460;2022-08-04T04:45:01;77.40;;;43.73;;
18738;SDS011;9498;51.862;19.460;2022-08-04T04:47:32;80.10;;;45.03;;
18738;SDS011;9498;51.862;19.460;2022-08-04T04:50:05;72.30;;;45.07;;
18738;SDS011;9498;51.862;19.460;2022-08-04T04:52:37;73.80;;;44.67;;
18738;SDS011;9498;51.862;19.460;2022-08-04T04:55:09;72.93;;;44.77;;
18738;SDS011;9498;51.862;19.460;2022-08-04T04:57:38;73.07;;;45.33;;
18738;SDS011;9498;51.862;19.460;2022-08-04T05:00:08;77.00;;;45.10;;
18738;SDS011;9498;51.862;19.460;2022-08-04T05:02:44;75.37;;;44.80;;
18738;SDS011;9498;51.862;19.460;2022-08-04T05:11:25;59.93;;;38.40;;
18738;SDS011;9498;51.862;19.460;2022-08-04T05:13:57;54.83;;;35.87;;
18738;SDS011;9498;51.862;19.460;2022-08-04T05:16:29;49.87;;;32.37;;
18738;SDS011;9498;51.862;19.460;2022-08-04T05:19:01;38.97;;;26.80;;
18738;SDS011;9498;51.862;19.460;2022-08-04T05:21:32;38.60;;;25.00;;
18738;SDS011;9498;51.862;19.460;2022-08-04T05:24:05;31.80;;;22.60;;
18738;SDS011;9498;51.862;19.460;2022-08-04T05:26:34;28.73;;;19.90;;
18738;SDS011;9498;51.862;19.460;2022-08-04T05:29:06;23.37;;;18.07;;
18738;SDS011;9498;51.862;19.460;2022-08-04T05:31:36;28.43;;;18.17;;
18738;SDS011;9498;51.862;19.460;2022-08-04T05:34:07;23.10;;;16.53;;
18738;SDS011;9498;51.862;19.460;2022-08-04T05:36:37;22.93;;;16.03;;
18738;SDS011;9498;51.862;19.460;2022-08-04T05:39:06;21.70;;;15.63;;
18738;SDS011;9498;51.862;19.460;2022-08-04T05:41:37;21.40;;;14.90;;
18738;SDS011;9498;51.862;19.460;2022-08-04T05:44:08;18.70;;;13.90;;
18738;SDS011;9498;51.862;19.460;2022-08-04T05:46:35;21.97;;;14.03;;
18738;SDS011;9498;51.862;19.460;2022-08-04T05:49:03;19.77;;;14.07;;
18738;SDS011;9498;51.862;19.460;2022-08-04T05:51:31;19.80;;;13.63;;
18738;SDS011;9498;51.862;19.460;2022-08-04T05:53:59;18.30;;;12.60;;
18738;SDS011;9498;51.862;19.460;2022-08-04T05:56:28;21.37;;;13.00;;
18738;SDS011;9498;51.862;19.460;2022-08-04T05:58:58;17.33;;;12.80;;
18738;SDS011;9498;51.862;19.460;2022-08-04T06:01:27;17.33;;;12.17;;
18738;SDS011;9498;51.862;19.460;2022-08-04T06:03:56;16.20;;;12.07;;
18738;SDS011;9498;51.862;19.460;2022-08-04T06:06:24;14.00;;;11.20;;
18738;SDS011;9498;51.862;19.460;2022-08-04T06:08:53;17.00;;;12.60;;
18738;SDS011;9498;51.862;19.460;2022-08-04T06:11:20;14.77;;;11.43;;
18738;SDS011;9498;51.862;19.460;2022-08-04T06:13:50;16.97;;;11.27;;
18738;SDS011;9498;51.862;19.460;2022-08-04T06:16:18;13.77;;;10.90;;
18738;SDS011;9498;51.862;19.460;2022-08-04T06:18:49;15.43;;;10.30;;
18738;SDS011;9498;51.862;19.460;2022-08-04T06:21:18;16.33;;;10.13;;
18738;SDS011;9498;51.862;19.460;2022-08-04T06:23:47;14.70;;;10.23;;
18738;SDS011;9498;51.862;19.460;2022-08-04T06:26:14;18.20;;;10.93;;
18738;SDS011;9498;51.862;19.460;2022-08-04T06:28:44;17.63;;;11.43;;
18738;SDS011;9498;51.862;19.460;2022-08-04T06:31:12;13.57;;;11.07;;
18738;SDS011;9498;51.862;19.460;2022-08-04T06:33:46;15.77;;;11.33;;
18738;SDS011;9498;51.862;19.460;2022-08-04T06:36:15;15.67;;;11.50;;
18738;SDS011;9498;51.862;19.460;2022-08-04T06:38:43;20.43;;;11.20;;
18738;SDS011;9498;51.862;19.460;2022-08-04T06:41:10;15.50;;;11.23;;
18738;SDS011;9498;51.862;19.460;2022-08-04T06:43:38;13.93;;;10.87;;
18738;SDS011;9498;51.862;19.460;2022-08-04T06:46:06;17.00;;;11.20;;
18738;SDS011;9498;51.862;19.460;2022-08-04T06:48:34;16.67;;;11.03;;
18738;SDS011;9498;51.862;19.460;2022-08-04T06:51:02;15.93;;;11.03;;
18738;SDS011;9498;51.862;19.460;2022-08-04T06:53:31;18.23;;;10.83;;
18738;SDS011;9498;51.862;19.460;2022-08-04T06:55:58;17.20;;;11.07;;
18738;SDS011;9498;51.862;19.460;2022-08-04T06:58:27;14.97;;;10.60;;
18738;SDS011;9498;51.862;19.460;2022-08-04T07:00:56;15.80;;;10.90;;
18738;SDS011;9498;51.862;19.460;2022-08-04T07:03:26;13.63;;;10.50;;
18738;SDS011;9498;51.862;19.460;2022-08-04T07:05:54;16.95;;;10.73;;
18738;SDS011;9498;51.862;19.460;2022-08-04T07:08:21;15.70;;;10.00;;
18738;SDS011;9498;51.862;19.460;2022-08-04T07:10:50;14.50;;;10.17;;
18738;SDS011;9498;51.862;19.460;2022-08-04T07:13:18;17.63;;;10.77;;
18738;SDS011;9498;51.862;19.460;2022-08-04T07:15:46;17.67;;;10.77;;
18738;SDS011;9498;51.862;19.460;2022-08-04T07:18:14;20.13;;;10.40;;
18738;SDS011;9498;51.862;19.460;2022-08-04T07:20:42;17.23;;;9.93;;
18738;SDS011;9498;51.862;19.460;2022-08-04T07:23:10;14.27;;;10.93;;
18738;SDS011;9498;51.862;19.460;2022-08-04T07:25:41;14.80;;;10.20;;
18738;SDS011;9498;51.862;19.460;2022-08-04T07:28:10;14.07;;;10.37;;
18738;SDS011;9498;51.862;19.460;2022-08-04T07:30:39;15.90;;;10.53;;
18738;SDS011;9498;51.862;19.460;2022-08-04T07:33:07;17.63;;;11.20;;
18738;SDS011;9498;51.862;19.460;2022-08-04T07:35:34;14.47;;;10.33;;
18738;SDS011;9498;51.862;19.460;2022-08-04T07:38:03;12.87;;;10.03;;
18738;SDS011;9498;51.862;19.460;2022-08-04T07:40:30;14.43;;;10.37;;
18738;SDS011;9498;51.862;19.460;2022-08-04T07:42:58;12.77;;;8.93;;
18738;SDS011;9498;51.862;19.460;2022-08-04T07:45:27;11.30;;;9.20;;
18738;SDS011;9498;51.862;19.460;2022-08-04T07:47:55;13.50;;;9.17;;
18738;SDS011;9498;51.862;19.460;2022-08-04T07:50:22;11.97;;;8.97;;
18738;SDS011;9498;51.862;19.460;2022-08-04T07:52:50;16.60;;;8.77;;
18738;SDS011;9498;51.862;19.460;2022-08-04T07:55:18;11.60;;;9.20;;
18738;SDS011;9498;51.862;19.460;2022-08-04T07:57:46;14.43;;;9.50;;
18738;SDS011;9498;51.862;19.460;2022-08-04T08:00:14;14.50;;;8.70;;
18738;SDS011;9498;51.862;19.460;2022-08-04T08:02:42;14.17;;;9.40;;
18738;SDS011;9498;51.862;19.460;2022-08-04T08:05:12;12.00;;;9.10;;
18738;SDS011;9498;51.862;19.460;2022-08-04T08:07:40;12.40;;;9.20;;
18738;SDS011;9498;51.862;19.460;2022-08-04T08:10:11;12.70;;;9.27;;
18738;SDS011;9498;51.862;19.460;2022-08-04T08:12:39;13.20;;;9.17;;
18738;SDS011;9498;51.862;19.460;2022-08-04T08:15:07;11.53;;;8.57;;
18738;SDS011;9498;51.862;19.460;2022-08-04T08:17:36;11.43;;;8.10;;
18738;SDS011;9498;51.862;19.460;2022-08-04T08:20:07;10.87;;;8.43;;
18738;SDS011;9498;51.862;19.460;2022-08-04T08:22:34;15.23;;;8.30;;
18738;SDS011;9498;51.862;19.460;2022-08-04T08:25:03;10.40;;;7.70;;
18738;SDS011;9498;51.862;19.460;2022-08-04T08:27:31;12.10;;;8.07;;
18738;SDS011;9498;51.862;19.460;2022-08-04T08:29:58;11.57;;;7.90;;
18738;SDS011;9498;51.862;19.460;2022-08-04T08:32:26;11.37;;;8.20;;
18738;SDS011;9498;51.862;19.460;2022-08-04T08:34:53;17.90;;;8.73;;
18738;SDS011;9498;51.862;19.460;2022-08-04T08:37:24;13.23;;;8.20;;
18738;SDS011;9498;51.862;19.460;2022-08-04T08:39:53;15.83;;;9.27;;
18738;SDS011;9498;51.862;19.460;2022-08-04T08:45:14;9.93;;;8.10;;
18738;SDS011;9498;51.862;19.460;2022-08-04T08:48:09;9.87;;;7.53;;
18738;SDS011;9498;51.862;19.460;2022-08-04T08:50:49;9.53;;;7.63;;
18738;SDS011;9498;51.862;19.460;2022-08-04T08:53:26;13.87;;;8.20;;
18738;SDS011;9498;51.862;19.460;2022-08-04T08:56:12;11.17;;;7.90;;
18738;SDS011;9498;51.862;19.460;2022-08-04T08:58:54;10.03;;;7.77;;
18738;SDS011;9498;51.862;19.460;2022-08-04T09:01:29;12.40;;;8.00;;
18738;SDS011;9498;51.862;19.460;2022-08-04T09:07:00;8.60;;;6.77;;
18738;SDS011;9498;51.862;19.460;2022-08-04T09:09:40;10.77;;;7.50;;
18738;SDS011;9498;51.862;19.460;2022-08-04T09:12:11;9.50;;;7.57;;
18738;SDS011;9498;51.862;19.460;2022-08-04T09:14:41;8.73;;;7.63;;
18738;SDS011;9498;51.862;19.460;2022-08-04T09:17:12;9.90;;;7.07;;
18738;SDS011;9498;51.862;19.460;2022-08-04T09:19:49;7.73;;;6.80;;
18738;SDS011;9498;51.862;19.460;2022-08-04T09:22:18;10.30;;;6.83;;
18738;SDS011;9498;51.862;19.460;2022-08-04T09:24:49;11.73;;;7.43;;
18738;SDS011;9498;51.862;19.460;2022-08-04T09:27:19;8.17;;;7.13;;
18738;SDS011;9498;51.862;19.460;2022-08-04T09:29:50;8.60;;;7.00;;
18738;SDS011;9498;51.862;19.460;2022-08-04T09:32:22;8.67;;;7.00;;
18738;SDS011;9498;51.862;19.460;2022-08-04T09:34:56;10.17;;;7.10;;
18738;SDS011;9498;51.862;19.460;2022-08-04T09:37:30;8.77;;;6.80;;
18738;SDS011;9498;51.862;19.460;2022-08-04T09:40:04;8.80;;;6.63;;
18738;SDS011;9498;51.862;19.460;2022-08-04T09:42:34;8.10;;;6.90;;
18738;SDS011;9498;51.862;19.460;2022-08-04T09:45:06;10.57;;;7.40;;
18738;SDS011;9498;51.862;19.460;2022-08-04T09:47:37;10.83;;;7.00;;
18738;SDS011;9498;51.862;19.460;2022-08-04T09:50:07;12.60;;;7.13;;
18738;SDS011;9498;51.862;19.460;2022-08-04T09:52:40;7.70;;;6.90;;
18738;SDS011;9498;51.862;19.460;2022-08-04T09:55:13;8.23;;;6.90;;
18738;SDS011;9498;51.862;19.460;2022-08-04T09:57:44;8.60;;;7.10;;
18738;SDS011;9498;51.862;19.460;2022-08-04T10:00:15;8.80;;;6.57;;
18738;SDS011;9498;51.862;19.460;2022-08-04T10:02:46;14.63;;;7.07;;
18738;SDS011;9498;51.862;19.460;2022-08-04T10:05:15;11.23;;;6.53;;
18738;SDS011;9498;51.862;19.460;2022-08-04T10:07:47;8.55;;;6.72;;
18738;SDS011;9498;51.862;19.460;2022-08-04T10:10:23;8.63;;;7.00;;
18738;SDS011;9498;51.862;19.460;2022-08-04T10:15:42;10.70;;;6.80;;
18738;SDS011;9498;51.862;19.460;2022-08-04T10:18:14;7.07;;;6.17;;
18738;SDS011;9498;51.862;19.460;2022-08-04T10:20:49;9.13;;;6.73;;
18738;SDS011;9498;51.862;19.460;2022-08-04T10:23:19;9.13;;;6.50;;
18738;SDS011;9498;51.862;19.460;2022-08-04T10:25:53;10.43;;;6.70;;
18738;SDS011;9498;51.862;19.460;2022-08-04T10:28:24;6.90;;;6.20;;
18738;SDS011;9498;51.862;19.460;2022-08-04T10:30:54;8.73;;;6.57;;
18738;SDS011;9498;51.862;19.460;2022-08-04T10:33:25;13.43;;;6.20;;
18738;SDS011;9498;51.862;19.460;2022-08-04T10:35:55;8.43;;;6.40;;
18738;SDS011;9498;51.862;19.460;2022-08-04T10:38:28;12.37;;;6.37;;
18738;SDS011;9498;51.862;19.460;2022-08-04T10:40:59;8.97;;;6.43;;
18738;SDS011;9498;51.862;19.460;2022-08-04T10:43:31;10.83;;;6.43;;
18738;SDS011;9498;51.862;19.460;2022-08-04T10:46:00;7.43;;;6.37;;
18738;SDS011;9498;51.862;19.460;2022-08-04T10:48:34;8.87;;;5.63;;
18738;SDS011;9498;51.862;19.460;2022-08-04T10:51:03;8.20;;;5.43;;
18738;SDS011;9498;51.862;19.460;2022-08-04T10:53:32;8.60;;;5.73;;
18738;SDS011;9498;51.862;19.460;2022-08-04T10:56:05;9.50;;;5.70;;
18738;SDS011;9498;51.862;19.460;2022-08-04T10:58:37;9.47;;;6.57;;
18738;SDS011;9498;51.862;19.460;2022-08-04T11:01:07;6.83;;;5.63;;
18738;SDS011;9498;51.862;19.460;2022-08-04T11:03:39;7.40;;;5.70;;
18738;SDS011;9498;51.862;19.460;2022-08-04T11:06:08;8.27;;;5.37;;
18738;SDS011;9498;51.862;19.460;2022-08-04T11:08:36;7.57;;;5.30;;
18738;SDS011;9498;51.862;19.460;2022-08-04T11:11:08;5.90;;;5.07;;
18738;SDS011;9498;51.862;19.460;2022-08-04T11:13:39;10.50;;;5.65;;
18738;SDS011;9498;51.862;19.460;2022-08-04T11:16:08;5.67;;;4.63;;
18738;SDS011;9498;51.862;19.460;2022-08-04T11:18:43;5.53;;;4.97;;
18738;SDS011;9498;51.862;19.460;2022-08-04T11:21:14;15.07;;;5.20;;
18738;SDS011;9498;51.862;19.460;2022-08-04T11:23:45;7.63;;;5.03;;
18738;SDS011;9498;51.862;19.460;2022-08-04T11:26:17;6.95;;;5.30;;
18738;SDS011;9498;51.862;19.460;2022-08-04T11:28:47;5.67;;;4.43;;
18738;SDS011;9498;51.862;19.460;2022-08-04T11:31:18;7.43;;;5.10;;
18738;SDS011;9498;51.862;19.460;2022-08-04T11:33:46;7.27;;;4.87;;
18738;SDS011;9498;51.862;19.460;2022-08-04T11:36:19;8.20;;;4.78;;
18738;SDS011;9498;51.862;19.460;2022-08-04T11:38:48;5.77;;;4.57;;
18738;SDS011;9498;51.862;19.460;2022-08-04T11:41:20;5.00;;;4.40;;
18738;SDS011;9498;51.862;19.460;2022-08-04T11:43:50;6.40;;;4.70;;
18738;SDS011;9498;51.862;19.460;2022-08-04T11:46:21;5.93;;;4.50;;
18738;SDS011;9498;51.862;19.460;2022-08-04T11:48:51;7.43;;;5.17;;
18738;SDS011;9498;51.862;19.460;2022-08-04T11:51:21;9.73;;;6.07;;
18738;SDS011;9498;51.862;19.460;2022-08-04T11:53:49;6.07;;;5.00;;
18738;SDS011;9498;51.862;19.460;2022-08-04T11:56:16;5.33;;;4.30;;
18738;SDS011;9498;51.862;19.460;2022-08-04T11:58:45;6.67;;;4.60;;
18738;SDS011;9498;51.862;19.460;2022-08-04T12:01:15;6.43;;;4.70;;
18738;SDS011;9498;51.862;19.460;2022-08-04T12:03:48;7.93;;;4.50;;
18738;SDS011;9498;51.862;19.460;2022-08-04T12:06:23;6.53;;;4.93;;
18738;SDS011;9498;51.862;19.460;2022-08-04T12:09:02;4.43;;;4.03;;
18738;SDS011;9498;51.862;19.460;2022-08-04T12:11:36;5.60;;;4.27;;
18738;SDS011;9498;51.862;19.460;2022-08-04T12:14:13;5.23;;;4.37;;
18738;SDS011;9498;51.862;19.460;2022-08-04T12:16:41;8.37;;;4.57;;
18738;SDS011;9498;51.862;19.460;2022-08-04T12:19:12;8.53;;;4.23;;
18738;SDS011;9498;51.862;19.460;2022-08-04T12:21:44;5.50;;;4.70;;
18738;SDS011;9498;51.862;19.460;2022-08-04T12:24:17;5.17;;;4.67;;
18738;SDS011;9498;51.862;19.460;2022-08-04T12:26:47;7.83;;;4.30;;
18738;SDS011;9498;51.862;19.460;2022-08-04T12:29:17;5.20;;;4.10;;
18738;SDS011;9498;51.862;19.460;2022-08-04T12:31:47;7.43;;;4.40;;
18738;SDS011;9498;51.862;19.460;2022-08-04T12:34:16;10.50;;;4.30;;
18738;SDS011;9498;51.862;19.460;2022-08-04T12:36:46;7.63;;;4.40;;
18738;SDS011;9498;51.862;19.460;2022-08-04T12:39:19;8.17;;;4.40;;
18738;SDS011;9498;51.862;19.460;2022-08-04T12:41:51;5.93;;;4.13;;
18738;SDS011;9498;51.862;19.460;2022-08-04T12:44:20;5.83;;;4.27;;
18738;SDS011;9498;51.862;19.460;2022-08-04T12:46:48;6.00;;;3.97;;
18738;SDS011;9498;51.862;19.460;2022-08-04T12:49:16;5.23;;;4.00;;
18738;SDS011;9498;51.862;19.460;2022-08-04T12:51:43;4.63;;;4.13;;
18738;SDS011;9498;51.862;19.460;2022-08-04T12:54:12;4.30;;;3.80;;
18738;SDS011;9498;51.862;19.460;2022-08-04T12:56:40;5.60;;;4.20;;
18738;SDS011;9498;51.862;19.460;2022-08-04T12:59:09;6.33;;;4.27;;
18738;SDS011;9498;51.862;19.460;2022-08-04T13:01:39;7.93;;;4.07;;
18738;SDS011;9498;51.862;19.460;2022-08-04T13:04:14;5.53;;;4.07;;
18738;SDS011;9498;51.862;19.460;2022-08-04T13:06:42;5.87;;;4.10;;
18738;SDS011;9498;51.862;19.460;2022-08-04T13:09:13;7.97;;;4.00;;
18738;SDS011;9498;51.862;19.460;2022-08-04T13:11:42;5.13;;;4.18;;
18738;SDS011;9498;51.862;19.460;2022-08-04T13:14:11;4.80;;;3.70;;
18738;SDS011;9498;51.862;19.460;2022-08-04T13:16:39;7.00;;;4.47;;
18738;SDS011;9498;51.862;19.460;2022-08-04T13:19:07;6.20;;;4.03;;
18738;SDS011;9498;51.862;19.460;2022-08-04T13:21:39;9.60;;;4.50;;
18738;SDS011;9498;51.862;19.460;2022-08-04T13:24:09;9.53;;;4.03;;
18738;SDS011;9498;51.862;19.460;2022-08-04T13:26:37;6.30;;;4.30;;
18738;SDS011;9498;51.862;19.460;2022-08-04T13:29:12;4.90;;;4.00;;
18738;SDS011;9498;51.862;19.460;2022-08-04T13:31:42;5.43;;;4.40;;
18738;SDS011;9498;51.862;19.460;2022-08-04T13:34:10;10.07;;;4.73;;
18738;SDS011;9498;51.862;19.460;2022-08-04T13:36:38;6.40;;;4.27;;
18738;SDS011;9498;51.862;19.460;2022-08-04T13:39:06;5.03;;;3.97;;
18738;SDS011;9498;51.862;19.460;2022-08-04T13:41:35;6.30;;;4.30;;
18738;SDS011;9498;51.862;19.460;2022-08-04T13:44:04;8.57;;;3.67;;
18738;SDS011;9498;51.862;19.460;2022-08-04T13:46:36;5.43;;;4.30;;
18738;SDS011;9498;51.862;19.460;2022-08-04T13:49:08;8.80;;;4.30;;
18738;SDS011;9498;51.862;19.460;2022-08-04T13:51:35;7.60;;;4.07;;
18738;SDS011;9498;51.862;19.460;2022-08-04T13:54:03;6.43;;;4.27;;
18738;SDS011;9498;51.862;19.460;2022-08-04T13:56:32;5.53;;;4.00;;
18738;SDS011;9498;51.862;19.460;2022-08-04T13:59:02;6.13;;;4.30;;
18738;SDS011;9498;51.862;19.460;2022-08-04T14:01:30;5.37;;;3.90;;
18738;SDS011;9498;51.862;19.460;2022-08-04T14:04:00;6.60;;;4.17;;
18738;SDS011;9498;51.862;19.460;2022-08-04T14:06:30;6.03;;;3.93;;
18738;SDS011;9498;51.862;19.460;2022-08-04T14:08:59;5.23;;;4.27;;
18738;SDS011;9498;51.862;19.460;2022-08-04T14:11:31;6.83;;;4.40;;
18738;SDS011;9498;51.862;19.460;2022-08-04T14:13:59;6.97;;;4.20;;
18738;SDS011;9498;51.862;19.460;2022-08-04T14:16:27;5.00;;;4.17;;
18738;SDS011;9498;51.862;19.460;2022-08-04T14:18:56;5.50;;;4.43;;
18738;SDS011;9498;51.862;19.460;2022-08-04T14:21:24;7.80;;;3.90;;
18738;SDS011;9498;51.862;19.460;2022-08-04T14:23:53;5.80;;;4.43;;
18738;SDS011;9498;51.862;19.460;2022-08-04T14:26:22;6.73;;;4.40;;
18738;SDS011;9498;51.862;19.460;2022-08-04T14:28:50;6.43;;;4.50;;
18738;SDS011;9498;51.862;19.460;2022-08-04T14:31:18;6.07;;;4.73;;
18738;SDS011;9498;51.862;19.460;2022-08-04T14:33:46;10.60;;;4.30;;
18738;SDS011;9498;51.862;19.460;2022-08-04T14:36:14;9.03;;;4.57;;
18738;SDS011;9498;51.862;19.460;2022-08-04T14:38:46;6.17;;;5.20;;
18738;SDS011;9498;51.862;19.460;2022-08-04T14:41:16;8.93;;;5.27;;
18738;SDS011;9498;51.862;19.460;2022-08-04T14:43:44;7.80;;;5.10;;
18738;SDS011;9498;51.862;19.460;2022-08-04T14:46:12;6.27;;;4.77;;
18738;SDS011;9498;51.862;19.460;2022-08-04T14:48:40;7.43;;;4.50;;
18738;SDS011;9498;51.862;19.460;2022-08-04T14:51:25;5.13;;;4.33;;
18738;SDS011;9498;51.862;19.460;2022-08-04T14:53:52;7.93;;;4.70;;
18738;SDS011;9498;51.862;19.460;2022-08-04T14:56:21;8.30;;;4.53;;
18738;SDS011;9498;51.862;19.460;2022-08-04T14:58:57;5.93;;;4.27;;
18738;SDS011;9498;51.862;19.460;2022-08-04T15:01:25;5.07;;;4.33;;
18738;SDS011;9498;51.862;19.460;2022-08-04T15:03:53;5.53;;;4.50;;
18738;SDS011;9498;51.862;19.460;2022-08-04T15:06:21;8.67;;;4.53;;
18738;SDS011;9498;51.862;19.460;2022-08-04T15:08:50;5.73;;;4.53;;
18738;SDS011;9498;51.862;19.460;2022-08-04T15:11:18;6.17;;;3.90;;
18738;SDS011;9498;51.862;19.460;2022-08-04T15:13:47;6.30;;;4.33;;
18738;SDS011;9498;51.862;19.460;2022-08-04T15:16:14;8.60;;;4.67;;
18738;SDS011;9498;51.862;19.460;2022-08-04T15:18:42;9.17;;;4.57;;
18738;SDS011;9498;51.862;19.460;2022-08-04T15:21:09;5.47;;;4.10;;
18738;SDS011;9498;51.862;19.460;2022-08-04T15:23:38;8.43;;;4.87;;
18738;SDS011;9498;51.862;19.460;2022-08-04T15:26:07;6.33;;;4.93;;
18738;SDS011;9498;51.862;19.460;2022-08-04T15:28:35;7.33;;;4.73;;
18738;SDS011;9498;51.862;19.460;2022-08-04T15:31:06;5.90;;;4.30;;
18738;SDS011;9498;51.862;19.460;2022-08-04T15:33:34;5.83;;;4.57;;
18738;SDS011;9498;51.862;19.460;2022-08-04T15:36:09;9.87;;;4.77;;